createdAt,value
2022-12-23T00:01:23.521Z,1.20
2022-12-23T00:03:51.885Z,4.23
2022-12-23T00:06:21.575Z,3.57
2022-12-23T00:08:49.845Z,3.50
2022-12-23T00:11:20.971Z,1.70
2022-12-23T00:14:06.534Z,3.40
2022-12-23T00:16:37.112Z,3.00
2022-12-23T00:19:05.446Z,3.67
2022-12-23T00:21:55.070Z,2.83
2022-12-23T00:24:24.213Z,3.10
2022-12-23T00:26:53.609Z,3.53
2022-12-23T00:29:21.640Z,3.23
2022-12-23T00:31:49.733Z,1.80
2022-12-23T00:34:18.003Z,4.00
2022-12-23T00:36:46.023Z,1.53
2022-12-23T00:39:32.169Z,3.17
2022-12-23T00:42:18.999Z,1.30
2022-12-23T00:44:47.010Z,3.03
2022-12-23T00:47:36.069Z,2.23
2022-12-23T00:50:03.224Z,1.60
2022-12-23T00:52:31.714Z,3.50
2022-12-23T00:54:59.737Z,3.27
2022-12-23T00:57:29.124Z,1.10
2022-12-23T00:59:57.146Z,1.87
2022-12-23T01:02:42.924Z,1.30
2022-12-23T01:05:29.836Z,1.90
2022-12-23T01:07:57.881Z,1.13
2022-12-23T01:10:25.936Z,4.60
2022-12-23T01:12:55.352Z,1.67
2022-12-23T01:15:23.451Z,3.17
2022-12-23T01:17:51.486Z,2.50
2022-12-23T01:20:19.557Z,2.30
2022-12-23T01:22:47.539Z,1.20
2022-12-23T01:25:15.608Z,4.10
2022-12-23T01:27:43.816Z,1.83
2022-12-23T01:30:13.678Z,1.00
2022-12-23T01:32:41.778Z,2.10
2022-12-23T01:35:09.901Z,1.50
2022-12-23T01:37:37.953Z,2.30
2022-12-23T01:40:07.321Z,1.43
2022-12-23T01:42:43.570Z,2.03
2022-12-23T01:45:18.444Z,2.03
2022-12-23T01:47:51.380Z,1.40
2022-12-23T01:50:24.768Z,1.40
2022-12-23T01:53:06.453Z,1.10
2022-12-23T01:55:39.059Z,2.30
2022-12-23T01:58:10.947Z,1.50
2022-12-23T02:00:58.724Z,1.93
2022-12-23T02:03:44.956Z,2.17
2022-12-23T02:06:36.840Z,1.40
2022-12-23T02:09:18.527Z,1.07
2022-12-23T02:12:10.791Z,3.67
2022-12-23T02:15:14.637Z,0.90
2022-12-23T02:17:57.122Z,1.10
2022-12-23T02:20:57.342Z,1.93
2022-12-23T02:23:51.032Z,1.43
2022-12-23T02:26:58.774Z,1.10
2022-12-23T02:29:58.472Z,2.20
2022-12-23T02:32:36.060Z,1.20
2022-12-23T02:35:12.636Z,1.60
2022-12-23T02:37:50.092Z,1.10
2022-12-23T02:40:30.379Z,1.00
2022-12-23T02:43:04.709Z,1.37
2022-12-23T02:45:37.579Z,1.43
2022-12-23T02:48:13.108Z,1.70
2022-12-23T02:50:43.839Z,0.80
2022-12-23T02:53:19.852Z,0.90
2022-12-23T02:55:51.486Z,1.20
2022-12-23T02:58:22.224Z,0.90
2022-12-23T03:00:51.823Z,1.00
2022-12-23T03:03:22.365Z,1.40
2022-12-23T03:05:52.142Z,1.47
2022-12-23T03:08:24.766Z,1.00
2022-12-23T03:11:04.827Z,1.73
2022-12-23T03:14:15.336Z,1.50
2022-12-23T03:16:53.116Z,2.90
2022-12-23T03:19:32.306Z,2.00
2022-12-23T03:22:10.099Z,4.93
2022-12-23T03:24:45.419Z,4.87
2022-12-23T03:27:17.847Z,2.53
2022-12-23T03:29:56.086Z,2.47
2022-12-23T03:32:27.115Z,1.10
2022-12-23T03:34:59.859Z,1.10
2022-12-23T03:37:31.030Z,1.93
2022-12-23T03:40:03.345Z,1.80
2022-12-23T03:42:35.689Z,0.87
2022-12-23T03:48:01.654Z,1.10
2022-12-23T03:50:32.430Z,1.10
2022-12-23T03:53:04.043Z,1.20
2022-12-23T03:55:36.167Z,0.90
2022-12-23T03:58:11.305Z,1.30
2022-12-23T04:00:45.570Z,0.90
2022-12-23T04:03:20.378Z,1.77
2022-12-23T04:05:53.684Z,2.13
2022-12-23T04:08:27.252Z,1.97
2022-12-23T04:10:55.494Z,1.23
2022-12-23T04:13:23.482Z,0.93
2022-12-23T04:15:51.798Z,1.63
2022-12-23T04:18:19.857Z,1.20
2022-12-23T04:20:49.194Z,1.27
2022-12-23T04:23:17.248Z,2.20
2022-12-23T04:25:45.294Z,0.90
2022-12-23T04:28:13.412Z,1.10
2022-12-23T04:30:41.461Z,1.27
2022-12-23T04:33:11.610Z,1.40
2022-12-23T04:35:39.990Z,1.00
2022-12-23T04:38:09.332Z,2.17
2022-12-23T04:40:37.340Z,0.90
2022-12-23T04:43:05.398Z,1.07
2022-12-23T04:45:34.215Z,7.20
2022-12-23T04:48:02.232Z,4.10
2022-12-23T04:50:30.272Z,1.17
2022-12-23T04:52:58.253Z,1.00
2022-12-23T04:55:27.698Z,1.40
2022-12-23T04:57:55.751Z,2.40
2022-12-23T05:00:23.955Z,1.10
2022-12-23T05:02:52.167Z,1.00
2022-12-23T05:05:20.240Z,2.87
2022-12-23T05:07:50.927Z,1.40
2022-12-23T05:10:19.562Z,1.20
2022-12-23T05:12:48.903Z,1.20
2022-12-23T05:15:16.898Z,1.70
2022-12-23T05:17:44.959Z,1.33
2022-12-23T05:20:13.077Z,3.00
2022-12-23T05:22:41.209Z,1.10
2022-12-23T05:25:10.371Z,1.20
2022-12-23T05:27:38.309Z,1.10
2022-12-23T05:30:09.369Z,1.20
2022-12-23T05:32:39.229Z,0.97
2022-12-23T05:35:08.054Z,1.77
2022-12-23T05:37:36.261Z,1.10
2022-12-23T05:40:04.829Z,2.17
2022-12-23T05:42:33.093Z,1.50
2022-12-23T05:45:01.134Z,1.17
2022-12-23T05:47:30.578Z,1.10
2022-12-23T05:49:58.669Z,1.00
2022-12-23T05:52:26.798Z,1.80
2022-12-23T05:54:54.854Z,1.37
2022-12-23T05:57:22.908Z,1.40
2022-12-23T05:59:51.008Z,1.60
2022-12-23T06:02:20.537Z,1.83
2022-12-23T06:04:50.068Z,1.30
2022-12-23T06:07:18.058Z,1.10
2022-12-23T06:09:46.015Z,1.87
2022-12-23T06:12:14.048Z,1.40
2022-12-23T06:14:42.101Z,1.80
2022-12-23T06:17:10.044Z,1.57
2022-12-23T06:19:38.007Z,2.07
2022-12-23T06:22:17.775Z,2.57
2022-12-23T06:24:45.798Z,1.33
2022-12-23T06:27:13.879Z,2.13
2022-12-23T06:29:42.111Z,2.17
2022-12-23T06:32:10.361Z,1.53
2022-12-23T06:34:38.421Z,2.33
2022-12-23T06:37:06.448Z,1.63
2022-12-23T06:39:35.979Z,1.60
2022-12-23T06:42:04.028Z,1.90
2022-12-23T06:44:32.080Z,2.47
2022-12-23T06:47:00.062Z,2.10
2022-12-23T06:49:28.021Z,2.37
2022-12-23T06:51:56.041Z,2.83
2022-12-23T06:54:24.169Z,2.50
2022-12-23T06:56:53.547Z,2.10
2022-12-23T06:59:21.553Z,3.27
2022-12-23T07:01:49.634Z,2.40
2022-12-23T07:04:17.814Z,3.17
2022-12-23T07:06:45.802Z,2.97
2022-12-23T07:09:13.984Z,4.10
2022-12-23T07:11:42.041Z,3.57
2022-12-23T07:14:11.712Z,3.33
2022-12-23T07:16:40.109Z,2.90
2022-12-23T07:19:09.434Z,2.80
2022-12-23T07:21:38.746Z,4.00
2022-12-23T07:24:07.715Z,2.70
2022-12-23T07:26:35.936Z,4.63
2022-12-23T07:29:04.670Z,2.43
2022-12-23T07:31:35.452Z,3.37
2022-12-23T07:34:05.227Z,3.70
2022-12-23T07:36:33.274Z,2.73
2022-12-23T07:39:01.221Z,3.77
2022-12-23T07:41:29.193Z,3.70
2022-12-23T07:43:57.164Z,3.70
2022-12-23T07:46:25.194Z,3.10
2022-12-23T07:48:54.638Z,4.10
2022-12-23T07:51:22.631Z,4.00
2022-12-23T07:53:51.146Z,3.90
2022-12-23T07:56:19.674Z,3.57
2022-12-23T07:58:49.514Z,2.93
2022-12-23T08:01:18.279Z,5.77
2022-12-23T08:03:47.223Z,4.43
2022-12-23T08:06:17.898Z,3.30
2022-12-23T08:08:47.231Z,3.57
2022-12-23T08:11:16.502Z,4.07
2022-12-23T08:13:46.277Z,5.63
2022-12-23T08:16:14.361Z,3.50
2022-12-23T08:18:43.208Z,5.37
2022-12-23T08:21:15.737Z,6.90
2022-12-23T08:23:46.985Z,3.03
2022-12-23T08:26:17.380Z,4.37
2022-12-23T08:28:46.600Z,6.50
2022-12-23T08:31:17.109Z,7.40
2022-12-23T08:33:47.585Z,3.33
2022-12-23T08:36:22.798Z,4.87
2022-12-23T08:38:54.516Z,2.97
2022-12-23T08:41:24.271Z,5.67
2022-12-23T08:43:52.441Z,6.70
2022-12-23T08:46:20.945Z,6.00
2022-12-23T08:48:49.915Z,9.33
2022-12-23T08:51:20.437Z,8.03
2022-12-23T08:53:51.579Z,5.17
2022-12-23T08:56:25.813Z,6.47
2022-12-23T08:58:55.438Z,6.33
2022-12-23T09:01:26.158Z,5.53
2022-12-23T09:03:54.966Z,3.90
2022-12-23T09:06:29.671Z,6.03
2022-12-23T09:08:59.207Z,5.10
2022-12-23T09:11:30.345Z,4.30
2022-12-23T09:14:00.561Z,4.63
2022-12-23T09:16:29.202Z,4.43
2022-12-23T09:18:57.643Z,4.40
2022-12-23T09:21:26.201Z,5.33
2022-12-23T09:23:54.234Z,7.03
2022-12-23T09:26:25.050Z,6.47
2022-12-23T09:28:56.340Z,4.17
2022-12-23T09:31:29.054Z,5.63
2022-12-23T09:34:00.756Z,2.93
2022-12-23T09:36:29.906Z,5.00
2022-12-23T09:38:58.848Z,5.30
2022-12-23T09:41:49.914Z,5.73
2022-12-23T09:44:37.908Z,3.00
2022-12-23T09:47:10.401Z,3.87
2022-12-23T09:49:44.534Z,2.60
2022-12-23T09:52:20.388Z,4.50
2022-12-23T09:54:53.413Z,5.80
2022-12-23T09:57:24.705Z,2.80
2022-12-23T10:00:02.964Z,2.80
2022-12-23T10:02:40.847Z,3.00
2022-12-23T10:05:24.267Z,3.20
2022-12-23T10:07:57.710Z,2.80
2022-12-23T10:10:35.508Z,2.23
2022-12-23T10:13:07.241Z,2.80
2022-12-23T10:15:40.332Z,4.13
2022-12-23T10:18:24.244Z,3.00
2022-12-23T10:20:58.975Z,3.97
2022-12-23T10:23:32.190Z,3.03
2022-12-23T10:26:01.402Z,3.70
2022-12-23T10:28:29.690Z,2.40
2022-12-23T10:34:00.900Z,4.60
2022-12-23T10:36:39.851Z,2.33
2022-12-23T10:39:15.928Z,5.60
2022-12-23T10:41:55.267Z,2.73
2022-12-23T10:44:49.048Z,1.80
2022-12-23T10:47:28.140Z,2.90
2022-12-23T10:50:12.160Z,2.20
2022-12-23T10:52:43.967Z,2.03
2022-12-23T10:55:29.834Z,2.60
2022-12-23T10:58:06.582Z,3.17
2022-12-23T11:00:38.136Z,2.03
2022-12-23T11:03:17.967Z,1.83
2022-12-23T11:05:47.632Z,2.67
2022-12-23T11:08:16.418Z,1.80
2022-12-23T11:10:44.493Z,2.20
2022-12-23T11:13:25.380Z,1.63
2022-12-23T11:15:53.766Z,2.33
2022-12-23T11:18:23.233Z,3.00
2022-12-23T11:21:05.337Z,3.70
2022-12-23T11:23:36.539Z,2.53
2022-12-23T11:26:08.412Z,2.40
2022-12-23T11:28:39.233Z,1.20
2022-12-23T11:31:11.994Z,2.47
2022-12-23T11:33:46.566Z,2.83
2022-12-23T11:36:19.218Z,3.23
2022-12-23T11:38:52.281Z,1.37
2022-12-23T11:41:23.350Z,1.63
2022-12-23T11:43:57.558Z,2.70
2022-12-23T11:46:29.510Z,3.03
2022-12-23T11:49:18.407Z,1.50
2022-12-23T11:51:48.444Z,2.70
2022-12-23T11:54:18.548Z,1.73
2022-12-23T11:56:50.989Z,2.67
2022-12-23T11:59:31.088Z,1.60
2022-12-23T12:02:01.424Z,2.00
2022-12-23T12:04:35.390Z,1.60
2022-12-23T12:07:06.060Z,1.30
2022-12-23T12:09:35.322Z,1.57
2022-12-23T12:12:06.913Z,1.37
2022-12-23T12:14:42.967Z,1.77
2022-12-23T12:17:18.368Z,1.60
2022-12-23T12:19:59.606Z,1.73
2022-12-23T12:22:34.319Z,1.83
2022-12-23T12:25:17.857Z,2.70
2022-12-23T12:27:50.730Z,2.23
2022-12-23T12:30:21.028Z,1.47
2022-12-23T12:32:56.335Z,2.10
2022-12-23T12:35:32.042Z,2.20
2022-12-23T12:38:07.203Z,1.90
2022-12-23T12:40:40.865Z,2.13
2022-12-23T12:43:20.012Z,4.50
2022-12-23T12:45:54.009Z,3.30
2022-12-23T12:48:34.933Z,2.00
2022-12-23T12:51:10.380Z,4.43
2022-12-23T12:53:54.745Z,4.40
2022-12-23T12:56:29.171Z,1.70
2022-12-23T12:58:57.416Z,1.70
2022-12-23T13:01:41.022Z,2.03
2022-12-23T13:04:53.782Z,2.13
2022-12-23T13:07:30.529Z,2.37
2022-12-23T13:10:04.238Z,1.83
2022-12-23T13:12:45.958Z,2.03
2022-12-23T13:15:22.907Z,2.50
2022-12-23T13:18:08.098Z,1.77
2022-12-23T13:20:42.014Z,1.30
2022-12-23T13:23:42.136Z,1.80
2022-12-23T13:26:14.228Z,1.40
2022-12-23T13:28:50.990Z,2.70
2022-12-23T13:31:32.071Z,1.73
2022-12-23T13:34:05.782Z,2.03
2022-12-23T13:36:45.322Z,2.97
2022-12-23T13:39:39.176Z,1.53
2022-12-23T13:42:13.223Z,2.00
2022-12-23T13:44:41.545Z,2.03
2022-12-23T13:47:15.229Z,1.50
2022-12-23T13:49:54.900Z,2.40
2022-12-23T13:52:32.482Z,1.60
2022-12-23T13:55:15.621Z,1.40
2022-12-23T13:57:56.583Z,2.20
2022-12-23T14:00:30.879Z,4.00
2022-12-23T14:03:18.096Z,2.07
2022-12-23T14:05:47.525Z,1.83
2022-12-23T14:08:41.766Z,1.70
2022-12-23T14:11:19.735Z,2.87
2022-12-23T14:13:56.178Z,1.73
2022-12-23T14:16:37.120Z,1.53
2022-12-23T14:19:25.463Z,1.97
2022-12-23T14:22:05.276Z,2.60
2022-12-23T14:25:00.300Z,2.60
2022-12-23T14:27:41.708Z,1.83
2022-12-23T14:30:16.546Z,2.60
2022-12-23T14:32:49.880Z,4.13
2022-12-23T14:35:28.424Z,1.73
2022-12-23T14:38:23.530Z,2.03
2022-12-23T14:41:25.719Z,2.37
2022-12-23T14:43:57.822Z,3.20
2022-12-23T14:46:59.269Z,4.70
2022-12-23T14:49:48.177Z,3.10
2022-12-23T14:52:44.266Z,2.33
2022-12-23T14:55:44.142Z,2.87
2022-12-23T14:58:28.442Z,2.30
2022-12-23T15:01:03.499Z,2.13
2022-12-23T15:03:35.377Z,2.57
2022-12-23T15:06:07.895Z,3.10
2022-12-23T15:08:40.123Z,5.83
2022-12-23T15:11:10.390Z,1.90
2022-12-23T15:13:38.955Z,2.17
2022-12-23T15:16:16.373Z,2.43
2022-12-23T15:18:54.539Z,1.90
2022-12-23T15:21:28.565Z,2.17
2022-12-23T15:23:56.560Z,2.70
2022-12-23T15:26:28.917Z,2.17
2022-12-23T15:28:58.908Z,3.27
2022-12-23T15:31:32.546Z,2.57
2022-12-23T15:34:10.262Z,2.00
2022-12-23T15:36:45.136Z,2.97
2022-12-23T15:39:20.940Z,1.73
2022-12-23T15:41:49.502Z,1.90
2022-12-23T15:44:25.544Z,1.63
2022-12-23T15:46:54.968Z,2.00
2022-12-23T15:49:23.040Z,2.70
2022-12-23T15:52:13.723Z,1.80
2022-12-23T15:54:46.486Z,2.57
2022-12-23T15:57:20.461Z,1.60
2022-12-23T15:59:49.527Z,2.20
2022-12-23T16:05:26.416Z,1.87
2022-12-23T16:08:11.373Z,1.57
2022-12-23T16:10:40.805Z,1.90
2022-12-23T16:13:19.053Z,1.77
2022-12-23T16:15:48.384Z,1.60
2022-12-23T16:18:22.903Z,2.10
2022-12-23T16:20:54.564Z,3.47
2022-12-23T16:23:23.598Z,2.17
2022-12-23T16:25:54.121Z,3.13
2022-12-23T16:28:24.507Z,3.30
2022-12-23T16:30:54.712Z,1.80
2022-12-23T16:33:36.836Z,2.60
2022-12-23T16:36:23.565Z,2.33
2022-12-23T16:38:53.520Z,2.10
2022-12-23T16:41:21.572Z,2.10
2022-12-23T16:43:52.756Z,1.43
2022-12-23T16:46:23.167Z,2.13
2022-12-23T16:48:55.583Z,2.20
2022-12-23T16:51:24.479Z,2.37
2022-12-23T16:53:55.126Z,3.07
2022-12-23T16:56:24.938Z,2.13
2022-12-23T16:58:52.962Z,1.50
2022-12-23T17:01:24.527Z,1.97
2022-12-23T17:03:55.797Z,2.50
2022-12-23T17:06:24.526Z,1.53
2022-12-23T17:08:54.029Z,1.87
2022-12-23T17:11:25.119Z,2.33
2022-12-23T17:13:56.705Z,2.73
2022-12-23T17:16:29.603Z,2.40
2022-12-23T17:18:59.060Z,2.00
2022-12-23T17:21:30.354Z,2.93
2022-12-23T17:24:05.395Z,1.60
2022-12-23T17:26:33.440Z,1.97
2022-12-23T17:29:02.636Z,1.83
2022-12-23T17:31:30.789Z,1.67
2022-12-23T17:34:00.167Z,2.83
2022-12-23T17:36:28.214Z,2.03
2022-12-23T17:38:56.301Z,2.03
2022-12-23T17:41:27.637Z,1.77
2022-12-23T17:43:56.180Z,2.63
2022-12-23T17:46:24.866Z,2.37
2022-12-23T17:48:53.387Z,1.30
2022-12-23T17:51:24.272Z,2.67
2022-12-23T17:53:57.637Z,1.57
2022-12-23T17:56:27.729Z,1.40
2022-12-23T17:58:55.899Z,1.57
2022-12-23T18:01:26.617Z,1.47
2022-12-23T18:03:55.834Z,3.00
2022-12-23T18:06:26.791Z,1.67
2022-12-23T18:08:55.255Z,3.27
2022-12-23T18:11:31.782Z,2.80
2022-12-23T18:13:59.887Z,1.97
2022-12-23T18:16:27.913Z,2.80
2022-12-23T18:18:55.931Z,1.73
2022-12-23T18:21:28.161Z,1.30
2022-12-23T18:23:58.404Z,3.20
2022-12-23T18:26:26.819Z,3.20
2022-12-23T18:28:54.867Z,2.10
2022-12-23T18:31:27.400Z,1.97
2022-12-23T18:33:55.925Z,2.27
2022-12-23T18:36:27.281Z,5.03
2022-12-23T18:38:57.067Z,3.37
2022-12-23T18:41:26.775Z,4.73
2022-12-23T18:43:55.224Z,3.97
2022-12-23T18:46:23.444Z,3.10
2022-12-23T18:48:51.618Z,1.97
2022-12-23T18:51:21.511Z,2.73
2022-12-23T18:53:51.110Z,2.83
2022-12-23T18:56:21.126Z,1.87
2022-12-23T18:58:49.700Z,2.20
2022-12-23T19:01:19.087Z,2.30
2022-12-23T19:03:47.964Z,2.57
2022-12-23T19:06:16.765Z,4.20
2022-12-23T19:08:45.357Z,1.40
2022-12-23T19:11:16.645Z,1.73
2022-12-23T19:13:45.044Z,1.70
2022-12-23T19:16:15.477Z,5.37
2022-12-23T19:18:44.100Z,1.57
2022-12-23T19:21:12.493Z,3.70
2022-12-23T19:23:41.308Z,2.83
2022-12-23T19:26:10.211Z,4.73
2022-12-23T19:28:41.344Z,5.00
2022-12-23T19:31:09.937Z,7.43
2022-12-23T19:33:38.492Z,7.90
2022-12-23T19:36:10.780Z,10.60
2022-12-23T19:38:38.914Z,7.50
2022-12-23T19:41:07.424Z,5.93
2022-12-23T19:43:35.748Z,9.77
2022-12-23T19:46:07.229Z,7.40
2022-12-23T19:48:35.898Z,6.53
2022-12-23T19:51:08.093Z,4.90
2022-12-23T19:53:36.426Z,6.27
2022-12-23T19:56:07.326Z,3.10
2022-12-23T19:58:37.258Z,2.43
2022-12-23T20:01:13.446Z,6.37
2022-12-23T20:03:42.901Z,3.50
2022-12-23T20:06:16.059Z,2.97
2022-12-23T20:08:44.759Z,2.50
2022-12-23T20:11:14.819Z,2.20
2022-12-23T20:13:42.882Z,2.70
2022-12-23T20:16:13.289Z,6.37
2022-12-23T20:18:41.572Z,5.80
2022-12-23T20:21:09.597Z,4.33
2022-12-23T20:23:37.642Z,6.90
2022-12-23T20:26:06.541Z,3.70
2022-12-23T20:28:35.416Z,2.53
2022-12-23T20:31:09.242Z,1.80
2022-12-23T20:33:40.391Z,1.30
2022-12-23T20:36:10.184Z,1.40
2022-12-23T20:38:39.883Z,1.97
2022-12-23T20:41:08.483Z,1.97
2022-12-23T20:43:36.730Z,1.70
2022-12-23T20:46:06.067Z,2.40
2022-12-23T20:48:34.795Z,2.90
2022-12-23T20:51:06.808Z,1.10
2022-12-23T20:53:35.098Z,1.90
2022-12-23T20:56:05.375Z,3.23
2022-12-23T20:58:50.975Z,2.17
2022-12-23T21:01:19.187Z,2.33
2022-12-23T21:03:47.331Z,1.73
2022-12-23T21:06:17.214Z,2.53
2022-12-23T21:08:45.501Z,3.17
2022-12-23T21:11:13.547Z,2.20
2022-12-23T21:13:41.645Z,2.77
2022-12-23T21:16:13.381Z,2.10
2022-12-23T21:18:42.444Z,2.00
2022-12-23T21:21:11.290Z,2.20
2022-12-23T21:23:42.027Z,2.70
2022-12-23T21:26:12.750Z,1.90
2022-12-23T21:28:41.705Z,2.40
2022-12-23T21:31:10.394Z,1.80
2022-12-23T21:33:40.300Z,2.40
2022-12-23T21:36:09.928Z,4.63
2022-12-23T21:38:41.943Z,2.20
2022-12-23T21:41:12.040Z,4.33
2022-12-23T21:43:40.127Z,3.10
2022-12-23T21:46:13.420Z,2.77
2022-12-23T21:48:42.065Z,3.00
2022-12-23T21:51:13.829Z,3.60
2022-12-23T21:53:44.618Z,3.53
2022-12-23T21:56:14.975Z,4.93
2022-12-23T21:58:43.648Z,3.40
2022-12-23T22:01:13.623Z,7.67
2022-12-23T22:03:42.386Z,5.13
2022-12-23T22:06:12.847Z,3.40
2022-12-23T22:08:40.944Z,3.20
2022-12-23T22:11:12.657Z,6.40
2022-12-23T22:13:41.436Z,3.30
2022-12-23T22:16:10.784Z,2.43
2022-12-23T22:18:39.439Z,3.00
2022-12-23T22:21:09.060Z,4.33
2022-12-23T22:23:41.667Z,3.87
2022-12-23T22:26:17.474Z,4.20
2022-12-23T22:28:48.435Z,2.10
2022-12-23T22:31:18.712Z,9.30
2022-12-23T22:33:47.209Z,6.47
2022-12-23T22:36:16.720Z,3.40
2022-12-23T22:38:45.495Z,4.60
2022-12-23T22:41:16.186Z,3.10
2022-12-23T22:43:44.152Z,9.77
2022-12-23T22:46:12.216Z,2.70
2022-12-23T22:48:40.486Z,1.70
2022-12-23T22:51:15.867Z,4.43
2022-12-23T22:53:43.937Z,2.47
2022-12-23T22:56:15.131Z,4.50
2022-12-23T22:58:43.217Z,3.67
2022-12-23T23:01:21.034Z,4.00
2022-12-23T23:03:51.023Z,4.53
2022-12-23T23:06:19.415Z,3.60
2022-12-23T23:08:47.502Z,4.17
2022-12-23T23:11:17.303Z,4.10
2022-12-23T23:13:45.319Z,2.13
2022-12-23T23:16:13.942Z,3.63
2022-12-23T23:18:42.059Z,2.93
2022-12-23T23:21:12.016Z,4.13
2022-12-23T23:23:40.221Z,6.33
2022-12-23T23:26:10.257Z,5.90
2022-12-23T23:28:40.347Z,3.83
2022-12-23T23:31:40.459Z,5.47
2022-12-23T23:33:57.776Z,10.33
2022-12-23T23:36:26.017Z,10.20
2022-12-23T23:38:54.242Z,10.53
2022-12-23T23:41:23.524Z,2.40
2022-12-23T23:43:53.289Z,9.90
2022-12-23T23:46:21.514Z,4.03
2022-12-23T23:48:49.546Z,4.90
2022-12-23T23:51:17.510Z,4.80
2022-12-23T23:53:45.545Z,3.13
2022-12-23T23:56:13.566Z,4.60
2022-12-23T23:58:41.590Z,4.13
